createdAt,value
2017-12-26T00:01:03.419Z,8.77
2017-12-26T00:03:30.890Z,7.77
2017-12-26T00:05:59.165Z,8.30
2017-12-26T00:08:26.764Z,8.03
2017-12-26T00:10:54.253Z,7.33
2017-12-26T00:13:21.744Z,9.10
2017-12-26T00:15:49.984Z,9.10
2017-12-26T00:18:17.463Z,9.27
2017-12-26T00:20:44.926Z,7.50
2017-12-26T00:23:12.404Z,8.27
2017-12-26T00:25:40.728Z,8.90
2017-12-26T00:28:08.215Z,8.73
2017-12-26T00:30:35.667Z,8.40
2017-12-26T00:33:03.166Z,8.37
2017-12-26T00:35:31.433Z,8.40
2017-12-26T00:37:59.671Z,8.30
2017-12-26T00:40:27.155Z,8.47
2017-12-26T00:42:55.424Z,9.20
2017-12-26T00:45:22.891Z,9.07
2017-12-26T00:47:50.371Z,8.27
2017-12-26T00:50:17.915Z,8.83
2017-12-26T00:52:45.403Z,8.23
2017-12-26T00:55:12.866Z,8.17
2017-12-26T00:57:40.392Z,9.17
2017-12-26T01:00:08.625Z,9.30
2017-12-26T01:02:36.119Z,8.07
2017-12-26T01:05:04.359Z,7.80
2017-12-26T01:07:31.853Z,8.47
2017-12-26T01:09:59.313Z,8.00
2017-12-26T01:12:26.783Z,8.73
2017-12-26T01:14:55.056Z,8.07
2017-12-26T01:17:22.524Z,8.60
2017-12-26T01:19:50.755Z,8.00
2017-12-26T01:22:18.252Z,8.00
2017-12-26T01:24:46.500Z,8.80
2017-12-26T01:27:13.997Z,7.60
2017-12-26T01:29:41.468Z,8.07
2017-12-26T01:32:08.954Z,7.20
2017-12-26T01:34:36.433Z,6.63
2017-12-26T01:37:03.915Z,7.17
2017-12-26T01:39:32.158Z,8.67
2017-12-26T01:41:59.685Z,6.47
2017-12-26T01:44:27.135Z,6.73
2017-12-26T01:46:54.651Z,7.27
2017-12-26T01:49:22.118Z,7.10
2017-12-26T01:51:49.627Z,8.37
2017-12-26T01:54:17.098Z,7.77
2017-12-26T01:56:44.583Z,8.80
2017-12-26T01:59:12.059Z,7.63
2017-12-26T02:01:40.322Z,7.70
2017-12-26T02:04:07.792Z,7.60
2017-12-26T02:06:36.070Z,8.90
2017-12-26T02:09:04.317Z,8.80
2017-12-26T02:11:31.812Z,7.50
2017-12-26T02:14:00.058Z,8.40
2017-12-26T02:16:27.537Z,7.70
2017-12-26T02:18:55.011Z,7.63
2017-12-26T02:21:23.256Z,9.43
2017-12-26T02:23:50.722Z,8.70
2017-12-26T02:26:18.182Z,8.40
2017-12-26T02:28:46.436Z,8.20
2017-12-26T02:31:13.932Z,7.80
2017-12-26T02:33:42.167Z,7.30
2017-12-26T02:36:09.640Z,7.13
2017-12-26T02:38:37.134Z,8.57
2017-12-26T02:41:05.435Z,8.30
2017-12-26T02:43:32.920Z,6.20
2017-12-26T02:46:00.393Z,7.43
2017-12-26T02:48:27.884Z,8.50
2017-12-26T02:50:56.126Z,8.03
2017-12-26T02:53:23.624Z,8.30
2017-12-26T02:55:51.105Z,8.77
2017-12-26T02:58:18.596Z,7.40
2017-12-26T03:00:46.063Z,7.20
2017-12-26T03:03:13.548Z,8.10
2017-12-26T03:05:41.817Z,7.53
2017-12-26T03:08:09.295Z,7.97
2017-12-26T03:10:36.776Z,7.10
2017-12-26T03:13:04.262Z,8.33
2017-12-26T03:15:31.724Z,7.40
2017-12-26T03:17:59.219Z,6.63
2017-12-26T03:20:27.450Z,8.17
2017-12-26T03:22:54.943Z,7.67
2017-12-26T03:25:23.187Z,8.73
2017-12-26T03:27:50.662Z,7.30
2017-12-26T03:30:18.132Z,7.37
2017-12-26T03:32:45.625Z,7.00
2017-12-26T03:35:13.087Z,7.57
2017-12-26T03:37:40.566Z,7.60
2017-12-26T03:40:08.094Z,7.17
2017-12-26T03:42:35.555Z,6.87
2017-12-26T03:45:03.027Z,8.50
2017-12-26T03:47:30.516Z,8.13
2017-12-26T03:49:57.990Z,8.43
2017-12-26T03:52:25.458Z,7.53
2017-12-26T03:54:53.739Z,8.47
2017-12-26T03:57:21.986Z,6.93
2017-12-26T03:59:49.461Z,7.80
2017-12-26T04:02:16.967Z,8.10
2017-12-26T04:04:44.435Z,7.23
2017-12-26T04:07:11.922Z,7.20
2017-12-26T04:09:39.441Z,8.13
2017-12-26T04:12:06.919Z,7.80
2017-12-26T04:14:34.406Z,7.20
2017-12-26T04:17:01.870Z,7.50
2017-12-26T04:19:29.351Z,7.63
2017-12-26T04:21:57.596Z,8.47
2017-12-26T04:24:25.079Z,9.03
2017-12-26T04:26:53.306Z,8.20
2017-12-26T04:29:20.773Z,8.30
2017-12-26T04:31:48.287Z,9.30
2017-12-26T04:34:15.815Z,8.90
2017-12-26T04:36:43.271Z,8.90
2017-12-26T04:39:10.767Z,9.67
2017-12-26T04:41:38.237Z,7.33
2017-12-26T04:44:05.720Z,8.93
2017-12-26T04:46:33.182Z,8.13
2017-12-26T04:49:00.654Z,8.10
2017-12-26T04:51:28.118Z,9.23
2017-12-26T04:53:55.622Z,9.20
2017-12-26T04:56:23.113Z,8.50
2017-12-26T04:58:50.607Z,10.07
2017-12-26T05:01:18.064Z,8.33
2017-12-26T05:03:46.313Z,9.30
2017-12-26T05:06:13.813Z,8.50
2017-12-26T05:08:42.039Z,8.17
2017-12-26T05:11:09.504Z,9.47
2017-12-26T05:13:36.981Z,9.70
2017-12-26T05:16:04.446Z,8.53
2017-12-26T05:18:31.932Z,9.10
2017-12-26T05:20:59.413Z,8.70
2017-12-26T05:23:26.871Z,8.17
2017-12-26T05:25:54.326Z,8.77
2017-12-26T05:28:21.822Z,8.30
2017-12-26T05:30:49.286Z,10.40
2017-12-26T05:33:16.788Z,9.23
2017-12-26T05:35:44.261Z,8.70
2017-12-26T05:38:11.743Z,10.93
2017-12-26T05:40:39.220Z,9.53
2017-12-26T05:43:06.728Z,10.13
2017-12-26T05:45:34.200Z,10.27
2017-12-26T05:48:01.676Z,9.63
2017-12-26T05:50:29.139Z,10.53
2017-12-26T05:52:56.619Z,10.13
2017-12-26T05:55:24.075Z,9.70
2017-12-26T05:57:51.537Z,9.93
2017-12-26T06:00:19.783Z,9.93
2017-12-26T06:02:47.262Z,11.03
2017-12-26T06:05:14.730Z,10.10
2017-12-26T06:07:43.007Z,10.27
2017-12-26T06:10:10.475Z,10.07
2017-12-26T06:12:38.714Z,9.00
2017-12-26T06:15:06.210Z,11.17
2017-12-26T06:17:34.452Z,9.63
2017-12-26T06:20:01.932Z,9.50
2017-12-26T06:22:29.387Z,9.73
2017-12-26T06:24:56.863Z,9.97
2017-12-26T06:27:25.138Z,9.07
2017-12-26T06:29:53.382Z,8.80
2017-12-26T06:32:21.607Z,7.93
2017-12-26T06:34:49.848Z,8.37
2017-12-26T06:37:17.322Z,7.60
2017-12-26T06:39:45.558Z,9.10
2017-12-26T06:42:13.017Z,7.83
2017-12-26T06:44:40.490Z,7.83
2017-12-26T06:47:07.959Z,9.10
2017-12-26T06:49:35.420Z,8.23
2017-12-26T06:52:02.886Z,8.83
2017-12-26T06:54:30.367Z,9.07
2017-12-26T06:56:57.823Z,8.00
2017-12-26T06:59:25.296Z,9.30
2017-12-26T07:01:52.746Z,8.83
2017-12-26T07:04:20.219Z,7.37
2017-12-26T07:06:47.686Z,7.20
2017-12-26T07:09:15.158Z,8.17
2017-12-26T07:11:42.618Z,6.70
2017-12-26T07:14:10.090Z,6.87
2017-12-26T07:16:37.555Z,7.57
2017-12-26T07:19:05.025Z,5.87
2017-12-26T07:21:38.129Z,6.17
2017-12-26T07:24:06.354Z,6.30
2017-12-26T07:26:33.820Z,5.80
2017-12-26T07:29:01.289Z,7.50
2017-12-26T07:31:28.751Z,6.07
2017-12-26T07:33:56.239Z,5.93
2017-12-26T07:36:24.469Z,6.23
2017-12-26T07:38:51.934Z,6.60
2017-12-26T07:41:19.395Z,5.30
2017-12-26T07:43:46.858Z,5.70
2017-12-26T07:46:14.350Z,6.40
2017-12-26T07:48:42.587Z,5.80
2017-12-26T07:51:10.047Z,5.40
2017-12-26T07:53:37.518Z,6.03
2017-12-26T07:56:04.994Z,5.23
2017-12-26T07:58:33.219Z,5.57
2017-12-26T08:01:00.679Z,6.77
2017-12-26T08:03:28.184Z,5.90
2017-12-26T08:05:56.430Z,6.90
2017-12-26T08:08:23.996Z,5.13
2017-12-26T08:10:51.456Z,5.43
2017-12-26T08:13:18.922Z,5.90
2017-12-26T08:15:46.394Z,6.10
2017-12-26T08:18:14.612Z,6.30
2017-12-26T08:20:42.084Z,6.73
2017-12-26T08:23:09.574Z,5.50
2017-12-26T08:25:37.046Z,5.30
2017-12-26T08:28:05.264Z,5.67
2017-12-26T08:30:32.868Z,4.80
2017-12-26T08:33:01.313Z,4.80
2017-12-26T08:35:29.160Z,4.50
2017-12-26T08:37:56.659Z,5.00
2017-12-26T08:40:25.039Z,4.33
2017-12-26T08:42:52.559Z,4.20
2017-12-26T08:45:20.078Z,5.30
2017-12-26T08:47:48.301Z,4.87
2017-12-26T08:50:15.771Z,4.60
2017-12-26T08:52:43.230Z,4.60
2017-12-26T08:55:10.690Z,4.80
2017-12-26T08:57:38.142Z,4.07
2017-12-26T09:00:05.602Z,4.30
2017-12-26T09:02:33.850Z,4.10
2017-12-26T09:05:06.028Z,4.23
2017-12-26T09:07:33.486Z,4.50
2017-12-26T09:10:00.962Z,4.60
2017-12-26T09:12:28.486Z,4.93
2017-12-26T09:14:57.257Z,3.80
2017-12-26T09:17:25.474Z,4.43
2017-12-26T09:19:52.953Z,4.87
2017-12-26T09:22:21.495Z,4.30
2017-12-26T09:24:48.998Z,4.77
2017-12-26T09:27:16.450Z,4.70
2017-12-26T09:29:43.928Z,4.23
2017-12-26T09:32:11.383Z,5.17
2017-12-26T09:34:38.875Z,4.80
2017-12-26T09:37:07.116Z,4.90
2017-12-26T09:39:34.669Z,4.30
2017-12-26T09:42:02.121Z,4.97
2017-12-26T09:44:29.586Z,4.70
2017-12-26T09:46:57.041Z,4.77
2017-12-26T09:49:24.528Z,5.03
2017-12-26T09:51:51.972Z,4.47
2017-12-26T09:54:19.450Z,4.60
2017-12-26T09:56:47.697Z,4.43
2017-12-26T09:59:15.162Z,4.80
2017-12-26T10:01:42.617Z,4.30
2017-12-26T10:04:10.109Z,4.73
2017-12-26T10:06:38.494Z,4.40
2017-12-26T10:09:06.726Z,4.87
2017-12-26T10:11:34.237Z,5.13
2017-12-26T10:14:02.459Z,4.13
2017-12-26T10:16:29.918Z,4.70
2017-12-26T10:18:57.386Z,4.63
2017-12-26T10:21:24.876Z,4.53
2017-12-26T10:23:53.108Z,4.77
2017-12-26T10:26:20.598Z,4.57
2017-12-26T10:28:48.062Z,5.93
2017-12-26T10:31:16.310Z,4.90
2017-12-26T10:33:43.818Z,5.83
2017-12-26T10:36:11.303Z,5.10
2017-12-26T10:38:38.801Z,6.10
2017-12-26T10:41:06.288Z,5.33
2017-12-26T10:43:34.519Z,5.73
2017-12-26T10:46:02.000Z,5.50
2017-12-26T10:51:03.485Z,4.93
2017-12-26T10:53:31.746Z,4.70
2017-12-26T10:56:00.714Z,4.67
2017-12-26T10:58:28.176Z,4.50
2017-12-26T11:00:55.742Z,4.57
2017-12-26T11:03:23.308Z,4.20
2017-12-26T11:05:50.786Z,4.00
2017-12-26T11:08:19.027Z,4.60
2017-12-26T11:10:46.528Z,3.30
2017-12-26T11:13:14.756Z,3.20
2017-12-26T11:15:42.258Z,2.97
2017-12-26T11:18:10.503Z,3.10
2017-12-26T11:20:38.071Z,2.43
2017-12-26T11:23:05.799Z,3.13
2017-12-26T11:25:33.275Z,3.37
2017-12-26T11:28:00.903Z,4.60
2017-12-26T11:30:28.392Z,3.70
2017-12-26T11:32:55.862Z,4.03
2017-12-26T11:35:23.327Z,3.10
2017-12-26T11:37:50.814Z,2.90
2017-12-26T11:40:19.045Z,3.03
2017-12-26T11:42:46.515Z,3.00
2017-12-26T11:45:14.006Z,3.27
2017-12-26T11:47:42.235Z,2.93
2017-12-26T11:50:09.719Z,2.30
2017-12-26T11:52:37.277Z,2.87
2017-12-26T11:55:05.534Z,2.60
2017-12-26T11:57:33.013Z,3.20
2017-12-26T12:00:00.491Z,3.07
2017-12-26T12:02:28.740Z,3.07
2017-12-26T12:04:56.222Z,2.23
2017-12-26T12:07:23.677Z,1.93
2017-12-26T12:09:51.963Z,2.63
2017-12-26T12:12:19.427Z,2.07
2017-12-26T12:14:47.675Z,1.70
2017-12-26T12:17:15.130Z,1.20
2017-12-26T12:19:42.607Z,1.50
2017-12-26T12:22:10.834Z,1.30
2017-12-26T12:24:38.320Z,1.60
2017-12-26T12:27:05.788Z,1.20
2017-12-26T12:29:33.262Z,1.30
2017-12-26T12:32:00.715Z,1.03
2017-12-26T12:34:28.973Z,0.97
2017-12-26T12:36:56.439Z,1.20
2017-12-26T12:39:23.899Z,0.90
2017-12-26T12:41:52.884Z,1.23
2017-12-26T12:44:20.344Z,0.97
2017-12-26T12:46:47.903Z,1.20
2017-12-26T12:49:15.358Z,1.50
2017-12-26T12:51:42.931Z,0.90
2017-12-26T12:54:10.405Z,1.37
2017-12-26T12:56:38.638Z,1.20
2017-12-26T12:59:06.102Z,0.73
2017-12-26T13:01:33.588Z,1.00
2017-12-26T13:04:01.035Z,0.90
2017-12-26T13:06:28.520Z,1.00
2017-12-26T13:08:56.746Z,1.13
2017-12-26T13:11:24.272Z,1.40
2017-12-26T13:13:51.742Z,0.73
2017-12-26T13:16:19.213Z,0.87
2017-12-26T13:18:46.683Z,1.10
2017-12-26T13:21:14.159Z,1.07
2017-12-26T13:23:41.670Z,1.20
2017-12-26T13:26:09.147Z,1.20
2017-12-26T13:28:36.636Z,1.33
2017-12-26T13:31:04.986Z,1.07
2017-12-26T13:33:32.463Z,1.00
2017-12-26T13:35:59.934Z,1.20
2017-12-26T13:38:27.394Z,1.20
2017-12-26T13:40:54.858Z,1.03
2017-12-26T13:43:22.567Z,1.13
2017-12-26T13:45:50.031Z,1.13
2017-12-26T13:48:17.518Z,1.03
2017-12-26T13:50:44.983Z,0.90
2017-12-26T13:53:12.430Z,0.90
2017-12-26T13:55:39.896Z,1.20
2017-12-26T13:58:07.363Z,1.30
2017-12-26T14:00:34.827Z,0.90
2017-12-26T14:03:02.302Z,1.10
2017-12-26T14:05:29.828Z,0.80
2017-12-26T14:07:57.299Z,0.80
2017-12-26T14:10:24.771Z,1.33
2017-12-26T14:12:52.992Z,0.80
2017-12-26T14:15:20.463Z,1.00
2017-12-26T14:17:47.931Z,1.03
2017-12-26T14:20:15.392Z,0.80
2017-12-26T14:22:43.256Z,0.70
2017-12-26T14:25:10.743Z,0.70
2017-12-26T14:27:38.967Z,1.20
2017-12-26T14:30:06.446Z,1.10
2017-12-26T14:32:33.906Z,0.80
2017-12-26T14:35:01.374Z,0.80
2017-12-26T14:37:28.842Z,0.60
2017-12-26T14:39:56.300Z,0.70
2017-12-26T14:42:23.763Z,1.13
2017-12-26T14:44:51.986Z,1.20
2017-12-26T14:47:19.486Z,1.23
2017-12-26T14:49:46.974Z,1.00
2017-12-26T14:52:15.206Z,0.93
2017-12-26T14:54:42.670Z,1.00
2017-12-26T14:57:10.137Z,1.13
2017-12-26T14:59:37.620Z,0.90
2017-12-26T15:02:05.883Z,1.23
2017-12-26T15:04:33.357Z,0.83
2017-12-26T15:07:01.618Z,1.00
2017-12-26T15:09:29.092Z,1.23
2017-12-26T15:11:57.370Z,0.70
2017-12-26T15:14:25.645Z,1.10
2017-12-26T15:16:53.888Z,1.10
2017-12-26T15:19:21.363Z,1.00
2017-12-26T15:21:48.834Z,0.90
2017-12-26T15:24:17.051Z,1.00
2017-12-26T15:26:44.533Z,0.97
2017-12-26T15:29:12.790Z,1.30
2017-12-26T15:31:40.271Z,1.60
2017-12-26T15:34:08.495Z,1.00
2017-12-26T15:36:35.983Z,0.90
2017-12-26T15:39:04.312Z,1.03
2017-12-26T15:41:32.560Z,1.00
2017-12-26T15:44:00.023Z,1.17
2017-12-26T15:46:27.491Z,1.63
2017-12-26T15:48:54.951Z,1.13
2017-12-26T15:51:22.803Z,1.07
2017-12-26T15:53:50.271Z,1.40
2017-12-26T15:56:17.735Z,1.23
2017-12-26T15:58:45.985Z,1.33
2017-12-26T16:01:13.450Z,1.30
2017-12-26T16:03:40.930Z,1.07
2017-12-26T16:06:08.391Z,1.63
2017-12-26T16:08:36.617Z,1.70
2017-12-26T16:11:04.106Z,1.30
2017-12-26T16:13:31.550Z,1.17
2017-12-26T16:15:59.026Z,1.10
2017-12-26T16:18:26.491Z,1.13
2017-12-26T16:20:53.958Z,1.30
2017-12-26T16:23:22.182Z,1.60
2017-12-26T16:25:49.651Z,1.67
2017-12-26T16:28:17.121Z,1.30
2017-12-26T16:30:45.392Z,2.30
2017-12-26T16:33:12.861Z,1.53
2017-12-26T16:35:40.335Z,1.37
2017-12-26T16:38:07.796Z,1.20
2017-12-26T16:40:35.262Z,1.63
2017-12-26T16:43:03.508Z,1.40
2017-12-26T16:45:30.976Z,1.20
2017-12-26T16:47:58.445Z,1.30
2017-12-26T16:50:25.907Z,1.70
2017-12-26T16:52:54.140Z,1.27
2017-12-26T16:55:21.607Z,1.40
2017-12-26T16:57:49.087Z,1.60
2017-12-26T17:00:16.542Z,1.43
2017-12-26T17:02:44.013Z,1.50
2017-12-26T17:05:12.249Z,1.60
2017-12-26T17:07:39.718Z,1.23
2017-12-26T17:10:07.174Z,1.70
2017-12-26T17:12:34.654Z,1.30
2017-12-26T17:15:02.123Z,0.93
2017-12-26T17:17:30.366Z,0.90
2017-12-26T17:19:57.816Z,1.10
2017-12-26T17:22:25.312Z,1.23
2017-12-26T17:24:52.778Z,0.83
2017-12-26T17:27:21.023Z,2.00
2017-12-26T17:29:49.272Z,1.90
2017-12-26T17:32:16.742Z,1.30
2017-12-26T17:34:44.202Z,1.30
2017-12-26T17:37:11.678Z,1.23
2017-12-26T17:39:39.146Z,3.10
2017-12-26T17:42:06.617Z,1.33
2017-12-26T17:44:34.071Z,1.43
2017-12-26T17:47:01.539Z,1.57
2017-12-26T17:49:29.762Z,1.80
2017-12-26T17:51:57.234Z,1.53
2017-12-26T17:54:25.459Z,1.57
2017-12-26T17:56:52.934Z,1.60
2017-12-26T17:59:20.392Z,1.67
2017-12-26T18:01:47.868Z,1.50
2017-12-26T18:04:15.330Z,1.50
2017-12-26T18:06:42.811Z,1.90
2017-12-26T18:09:10.283Z,1.87
2017-12-26T18:11:37.746Z,1.57
2017-12-26T18:14:05.204Z,2.23
2017-12-26T18:16:32.686Z,1.63
2017-12-26T18:19:00.139Z,2.00
2017-12-26T18:21:28.378Z,2.10
2017-12-26T18:23:55.846Z,1.60
2017-12-26T18:26:23.315Z,2.30
2017-12-26T18:31:19.045Z,2.03
2017-12-26T18:33:47.269Z,2.13
2017-12-26T18:36:14.793Z,1.60
2017-12-26T18:38:43.015Z,1.50
2017-12-26T18:41:10.512Z,1.37
2017-12-26T18:43:37.965Z,1.57
2017-12-26T18:46:05.431Z,1.60
2017-12-26T18:48:32.888Z,1.27
2017-12-26T18:51:01.149Z,1.80
2017-12-26T18:53:28.617Z,1.50
2017-12-26T18:55:56.073Z,1.40
2017-12-26T18:58:23.553Z,1.43
2017-12-26T19:00:51.788Z,2.20
2017-12-26T19:03:19.253Z,2.80
2017-12-26T19:05:46.737Z,1.57
2017-12-26T19:08:14.983Z,1.60
2017-12-26T19:10:42.457Z,1.37
2017-12-26T19:13:09.952Z,1.83
2017-12-26T19:15:37.429Z,1.30
2017-12-26T19:18:04.895Z,1.93
2017-12-26T19:20:32.360Z,1.67
2017-12-26T19:22:59.830Z,1.40
2017-12-26T19:25:29.602Z,1.47
2017-12-26T19:27:57.098Z,1.50
2017-12-26T19:30:24.562Z,1.37
2017-12-26T19:32:52.030Z,1.97
2017-12-26T19:35:19.510Z,1.70
2017-12-26T19:37:47.748Z,1.73
2017-12-26T19:40:15.231Z,1.60
2017-12-26T19:42:42.705Z,1.70
2017-12-26T19:45:14.098Z,1.80
2017-12-26T19:47:41.570Z,1.70
2017-12-26T19:50:09.134Z,2.83
2017-12-26T19:52:36.705Z,2.17
2017-12-26T19:55:04.158Z,1.67
2017-12-26T19:57:32.390Z,2.10
2017-12-26T19:59:59.866Z,1.77
2017-12-26T20:02:27.338Z,2.17
2017-12-26T20:04:54.811Z,2.10
2017-12-26T20:07:22.350Z,1.90
2017-12-26T20:09:49.816Z,2.10
2017-12-26T20:12:17.278Z,2.27
2017-12-26T20:14:44.772Z,1.60
2017-12-26T20:17:12.263Z,2.00
2017-12-26T20:19:39.728Z,2.20
2017-12-26T20:22:07.206Z,1.90
2017-12-26T20:24:34.677Z,2.60
2017-12-26T20:27:02.141Z,1.60
2017-12-26T20:29:29.602Z,1.33
2017-12-26T20:31:57.063Z,1.27
2017-12-26T20:34:24.530Z,1.47
2017-12-26T20:36:51.986Z,1.80
2017-12-26T20:39:19.459Z,1.80
2017-12-26T20:41:47.681Z,1.33
2017-12-26T20:44:15.146Z,1.50
2017-12-26T20:46:42.610Z,2.07
2017-12-26T20:49:10.077Z,1.23
2017-12-26T20:51:37.537Z,1.63
2017-12-26T20:54:05.002Z,1.57
2017-12-26T20:56:32.453Z,1.67
2017-12-26T20:58:59.926Z,1.90
2017-12-26T21:01:27.401Z,1.80
2017-12-26T21:03:55.639Z,1.60
2017-12-26T21:06:23.221Z,1.87
2017-12-26T21:08:51.465Z,1.80
2017-12-26T21:11:18.930Z,1.70
2017-12-26T21:13:46.394Z,1.60
2017-12-26T21:16:13.850Z,1.67
2017-12-26T21:18:41.330Z,2.03
2017-12-26T21:21:08.940Z,1.80
2017-12-26T21:23:36.458Z,1.50
2017-12-26T21:26:04.746Z,1.70
2017-12-26T21:28:32.999Z,1.47
2017-12-26T21:31:00.454Z,1.53
2017-12-26T21:33:27.938Z,1.37
2017-12-26T21:35:56.156Z,1.20
2017-12-26T21:38:23.621Z,1.57
2017-12-26T21:40:51.103Z,1.60
2017-12-26T21:43:18.566Z,1.70
2017-12-26T21:45:46.037Z,1.67
2017-12-26T21:48:14.266Z,1.70
2017-12-26T21:50:41.737Z,1.20
2017-12-26T21:53:09.210Z,1.57
2017-12-26T21:55:36.669Z,1.60
2017-12-26T21:58:04.149Z,1.67
2017-12-26T22:00:32.382Z,1.47
2017-12-26T22:02:59.838Z,1.57
2017-12-26T22:05:27.304Z,1.83
2017-12-26T22:07:54.774Z,1.67
2017-12-26T22:10:22.235Z,1.40
2017-12-26T22:12:50.068Z,1.43
2017-12-26T22:15:17.540Z,1.40
2017-12-26T22:17:45.013Z,1.77
2017-12-26T22:20:12.474Z,1.30
2017-12-26T22:22:39.959Z,1.07
2017-12-26T22:25:07.418Z,1.43
2017-12-26T22:27:35.642Z,1.67
2017-12-26T22:30:03.116Z,1.70
2017-12-26T22:32:30.591Z,1.67
2017-12-26T22:34:58.059Z,1.23
2017-12-26T22:37:26.282Z,1.40
2017-12-26T22:39:53.754Z,1.27
2017-12-26T22:42:21.218Z,1.30
2017-12-26T22:44:48.692Z,1.20
2017-12-26T22:47:16.150Z,1.50
2017-12-26T22:49:43.612Z,1.40
2017-12-26T22:52:11.096Z,1.30
2017-12-26T22:54:39.330Z,1.50
2017-12-26T22:57:06.786Z,1.17
2017-12-26T22:59:34.253Z,1.50
2017-12-26T23:02:01.747Z,1.53
2017-12-26T23:04:30.008Z,1.77
2017-12-26T23:06:58.234Z,1.60
2017-12-26T23:09:25.717Z,1.67
2017-12-26T23:11:53.170Z,1.67
2017-12-26T23:14:26.334Z,1.90
2017-12-26T23:16:59.529Z,1.10
2017-12-26T23:19:27.004Z,1.80
2017-12-26T23:21:54.533Z,2.93
2017-12-26T23:24:27.813Z,1.53
2017-12-26T23:27:01.734Z,1.93
2017-12-26T23:29:34.785Z,1.70
2017-12-26T23:32:07.975Z,1.37
2017-12-26T23:34:41.133Z,1.53
2017-12-26T23:37:14.337Z,2.50
2017-12-26T23:39:47.540Z,1.30
2017-12-26T23:42:20.733Z,1.87
2017-12-26T23:44:53.941Z,1.60
2017-12-26T23:47:27.134Z,1.43
2017-12-26T23:50:00.274Z,1.40
2017-12-26T23:52:33.458Z,1.53
2017-12-26T23:58:07.077Z,1.40
